Time;durP1;ratioP1;P1;durP2;ratioP2;P2;SDS_P1;SDS_P2;PMS_P1;PMS_P2;Temp;Humidity;BMP_temperature;BMP_pressure;BME280_temperature;BME280_humidity;BME280_pressure;Samples;Min_cycle;Max_cycle;Signal;HPM_P1;HPM_P2
2022/12/04 00:01:04;;;;;;;;;;;0.00;99.90;;;;;;5057049;28;20127;-83
2022/12/04 00:03:31;;;;;;;0.70;0.70;;;-0.10;99.90;;;;;;5075052;28;19926;-84
2022/12/04 00:06:09;;;;;;;0.70;0.70;;;0.80;99.90;;;;;;5069149;28;20108;-81
2022/12/04 00:08:35;;;;;;;0.80;0.80;;;-0.10;99.90;;;;;;5070837;28;20058;-83
2022/12/04 00:11:02;;;;;;;0.70;0.70;;;-0.20;99.90;;;;;;5066848;28;20912;-81
2022/12/04 00:13:28;;;;;;;1.08;1.08;;;-0.20;99.90;;;;;;5041978;28;20052;-83
2022/12/04 00:16:00;;;;;;;0.70;0.70;;;-0.20;99.90;;;;;;5054059;28;20063;-84
2022/12/04 00:18:26;;;;;;;0.80;0.80;;;-0.20;99.90;;;;;;5070048;28;20056;-83
2022/12/04 00:20:52;;;;;;;0.80;0.80;;;1.20;99.90;;;;;;5073026;28;20098;-81
2022/12/04 00:23:19;;;;;;;0.65;0.65;;;-0.30;99.90;;;;;;5042492;28;20044;-84
2022/12/04 00:25:49;;;;;;;0.80;0.80;;;-0.30;99.90;;;;;;5077269;28;20099;-82
2022/12/04 00:28:18;;;;;;;0.80;0.80;;;-0.30;99.90;;;;;;5070376;28;20036;-82
2022/12/04 00:30:44;;;;;;;0.82;0.82;;;0.30;99.90;;;;;;5075337;28;20375;-80
2022/12/04 00:33:12;;;;;;;0.80;0.80;;;-0.30;99.90;;;;;;5070003;28;20078;-83
2022/12/04 00:35:38;;;;;;;0.70;0.70;;;-0.20;99.90;;;;;;5056131;28;20063;-81
2022/12/04 00:38:04;;;;;;;1.90;1.80;;;-0.20;99.90;;;;;;5075623;28;20056;-81
2022/12/04 00:40:31;;;;;;;0.77;0.77;;;-0.10;99.90;;;;;;5057255;28;20040;-82
2022/12/04 00:42:56;;;;;;;1.58;1.48;;;-0.20;99.90;;;;;;5080802;28;20132;-82
2022/12/04 00:45:22;;;;;;;1.17;1.17;;;-0.10;99.90;;;;;;5073745;28;20142;-83
2022/12/04 00:47:49;;;;;;;0.70;0.70;;;0.20;99.90;;;;;;5054801;28;20055;-80
2022/12/04 00:50:15;;;;;;;0.70;0.70;;;-0.10;99.90;;;;;;5072364;28;21923;-81
2022/12/04 00:52:40;;;;;;;0.70;0.70;;;-0.20;99.90;;;;;;5058505;28;20097;-82
2022/12/04 00:55:07;;;;;;;0.70;0.70;;;0.00;99.90;;;;;;5071766;28;20050;-83
2022/12/04 00:57:33;;;;;;;0.70;0.70;;;-0.40;99.90;;;;;;5079403;28;20032;-81
2022/12/04 00:59:58;;;;;;;0.80;0.80;;;-0.50;99.90;;;;;;5057950;28;20093;-82
2022/12/04 01:02:24;;;;;;;0.80;0.80;;;-0.60;99.90;;;;;;5071005;28;20044;-82
2022/12/04 01:04:50;;;;;;;0.90;0.90;;;-0.70;99.90;;;;;;5066293;28;20395;-83
2022/12/04 01:07:21;;;;;;;0.70;0.70;;;-0.80;99.90;;;;;;5062756;28;20040;-82
2022/12/04 01:09:47;;;;;;;0.65;0.65;;;-0.90;99.90;;;;;;5082008;28;20044;-83
2022/12/04 01:12:12;;;;;;;0.77;0.77;;;-1.00;99.90;;;;;;5061811;28;20048;-81
2022/12/04 01:14:38;;;;;;;0.77;0.77;;;-1.00;99.90;;;;;;5050115;28;20098;-83
2022/12/04 01:17:04;;;;;;;1.00;1.00;;;-1.10;99.90;;;;;;5055879;28;20059;-83
2022/12/04 01:19:30;;;;;;;0.90;0.90;;;-1.10;99.90;;;;;;5075202;28;20054;-83
2022/12/04 01:21:55;;;;;;;0.70;0.70;;;-1.20;99.90;;;;;;5067885;28;20037;-82
2022/12/04 01:24:29;;;;;;;0.80;0.80;;;-1.20;99.90;;;;;;5061615;28;20047;-84
2022/12/04 01:26:56;;;;;;;0.80;0.80;;;-1.20;99.90;;;;;;5045940;28;20068;-85
2022/12/04 01:29:22;;;;;;;0.90;0.90;;;-1.30;99.90;;;;;;5070725;28;20482;-84
2022/12/04 01:31:47;;;;;;;0.82;0.82;;;-1.30;99.90;;;;;;5072505;28;20086;-84
2022/12/04 01:34:13;;;;;;;0.85;0.85;;;-1.30;99.90;;;;;;5069640;28;20040;-84
2022/12/04 01:36:39;;;;;;;0.80;0.80;;;-1.20;99.90;;;;;;5046888;28;20045;-84
2022/12/04 01:39:05;;;;;;;;;;;-1.30;99.90;;;;;;5062502;28;20044;-83
2022/12/04 01:41:33;;;;;;;0.82;0.82;;;-1.20;99.90;;;;;;5086671;28;19917;-82
2022/12/04 01:44:18;;;;;;;2.30;2.20;;;-1.20;99.90;;;;;;5056120;28;20097;-84
2022/12/04 01:46:48;;;;;;;0.80;0.80;;;-0.50;99.90;;;;;;5076258;28;20415;-84
2022/12/04 01:49:22;;;;;;;0.80;0.80;;;-1.10;99.90;;;;;;5079134;28;20157;-83
2022/12/04 01:51:53;;;;;;;0.75;0.75;;;-1.00;99.90;;;;;;5084722;28;20076;-83
2022/12/04 01:54:28;;;;;;;0.80;0.80;;;-1.00;99.90;;;;;;5073333;28;20053;-84
2022/12/04 01:57:01;;;;;;;0.70;0.70;;;-0.80;99.90;;;;;;5082101;28;20391;-84
2022/12/04 01:59:31;;;;;;;0.80;0.80;;;-0.80;99.90;;;;;;5079060;28;20039;-83
2022/12/04 02:02:08;;;;;;;0.80;0.80;;;-0.70;99.90;;;;;;5077464;28;20035;-82
2022/12/04 02:04:35;;;;;;;0.90;0.90;;;-0.60;99.90;;;;;;5081233;28;20040;-83
2022/12/04 02:07:01;;;;;;;1.10;1.10;;;-0.60;99.90;;;;;;5062770;28;20035;-82
2022/12/04 02:09:27;;;;;;;0.80;0.80;;;0.50;99.90;;;;;;5066492;28;20493;-83
2022/12/04 02:11:56;;;;;;;0.70;0.70;;;-0.60;99.90;;;;;;5074662;28;20087;-82
2022/12/04 02:14:34;;;;;;;1.10;1.10;;;-0.50;99.90;;;;;;5075653;28;20037;-81
2022/12/04 02:17:19;;;;;;;0.80;0.80;;;-0.50;99.90;;;;;;5078890;28;20052;-82
2022/12/04 02:19:52;;;;;;;0.80;0.80;;;-0.40;99.90;;;;;;5083490;28;20036;-81
2022/12/04 02:22:53;;;;;;;0.70;0.70;;;-0.20;99.90;;;;;;5074414;28;20111;-82
2022/12/04 02:25:52;;;;;;;0.75;0.75;;;-0.40;99.90;;;;;;5077821;28;20071;-83
2022/12/04 02:28:23;;;;;;;0.77;0.77;;;-0.40;99.90;;;;;;5075626;28;20051;-84
2022/12/04 02:30:55;;;;;;;0.80;0.80;;;-0.40;99.90;;;;;;5073357;28;20040;-83
2022/12/04 02:33:34;;;;;;;0.80;0.80;;;-0.30;99.90;;;;;;5065297;28;20063;-83
2022/12/04 02:36:08;;;;;;;0.70;0.70;;;-0.40;99.90;;;;;;5078108;28;20056;-82
2022/12/04 02:38:42;;;;;;;0.70;0.70;;;-0.30;99.90;;;;;;5085687;28;20139;-82
2022/12/04 02:41:40;;;;;;;0.75;0.75;;;-0.30;99.90;;;;;;5085068;28;20119;-83
2022/12/04 02:44:28;;;;;;;0.80;0.80;;;-0.30;99.90;;;;;;5077594;28;20447;-82
2022/12/04 02:46:59;;;;;;;0.70;0.70;;;-0.30;99.90;;;;;;5085669;28;20115;-83
2022/12/04 02:49:30;;;;;;;0.60;0.60;;;-0.30;99.90;;;;;;5078904;28;20125;-82
2022/12/04 02:51:58;;;;;;;1.75;1.65;;;-0.10;99.90;;;;;;5077325;28;20125;-82
2022/12/04 02:54:38;;;;;;;0.60;0.60;;;-0.30;99.90;;;;;;5067665;28;20466;-83
2022/12/04 02:57:07;;;;;;;0.70;0.70;;;0.20;99.90;;;;;;5078251;28;20036;-81
2022/12/04 02:59:38;;;;;;;0.70;0.70;;;-0.30;99.90;;;;;;5072154;28;20101;-81
2022/12/04 03:02:12;;;;;;;0.60;0.60;;;-0.30;99.90;;;;;;5093637;28;20466;-82
2022/12/04 03:04:39;;;;;;;0.70;0.70;;;-0.30;99.90;;;;;;5090025;28;20054;-83
2022/12/04 03:07:19;;;;;;;0.80;0.80;;;-0.30;99.90;;;;;;5076056;28;20041;-83
2022/12/04 03:09:55;;;;;;;0.88;0.88;;;-0.30;99.90;;;;;;5079723;28;20397;-83
2022/12/04 03:12:41;;;;;;;0.70;0.70;;;-0.30;99.90;;;;;;5075272;28;20088;-84
2022/12/04 03:15:14;;;;;;;1.00;1.00;;;-0.40;99.90;;;;;;5086272;28;20063;-84
2022/12/04 03:17:56;;;;;;;0.70;0.70;;;-0.40;99.90;;;;;;5074881;28;20044;-84
2022/12/04 03:20:24;;;;;;;0.80;0.80;;;-0.40;99.90;;;;;;5072155;28;20035;-83
2022/12/04 03:22:56;;;;;;;0.60;0.60;;;0.40;99.90;;;;;;5067288;28;20036;-84
2022/12/04 03:25:30;;;;;;;5.95;1.48;;;-0.40;99.90;;;;;;5086298;28;20052;-84
2022/12/04 03:28:28;;;;;;;0.70;0.70;;;-0.40;99.90;;;;;;5067941;28;20044;-83
2022/12/04 03:30:58;;;;;;;0.75;0.75;;;-0.40;99.90;;;;;;5068768;28;20054;-83
2022/12/04 03:33:46;;;;;;;0.80;0.80;;;-0.40;99.90;;;;;;5064126;28;20052;-83
2022/12/04 03:36:23;;;;;;;0.80;0.80;;;-0.40;99.90;;;;;;5076850;28;20056;-83
2022/12/04 03:39:16;;;;;;;4.25;4.03;;;-0.40;99.90;;;;;;5059487;28;20120;-82
2022/12/04 03:42:06;;;;;;;0.70;0.70;;;-0.40;99.90;;;;;;5073353;28;20044;-83
2022/12/04 03:44:40;;;;;;;0.80;0.80;;;-0.40;99.90;;;;;;5097528;28;20049;-84
2022/12/04 03:47:13;;;;;;;0.70;0.70;;;-0.40;99.90;;;;;;5062614;28;20047;-82
2022/12/04 03:49:52;;;;;;;0.70;0.70;;;-0.40;99.90;;;;;;5066090;28;20032;-83
2022/12/04 03:52:56;;;;;;;0.80;0.80;;;-0.40;99.90;;;;;;5081861;28;20048;-83
2022/12/04 03:55:53;;;;;;;0.75;0.75;;;-0.40;99.90;;;;;;5042663;28;20410;-82
2022/12/04 03:58:24;;;;;;;0.70;0.70;;;-0.40;99.90;;;;;;5065914;28;20049;-83
2022/12/04 04:00:55;;;;;;;0.70;0.70;;;-0.20;99.90;;;;;;5075071;28;20093;-82
2022/12/04 04:03:27;;;;;;;2.72;2.55;;;-0.40;99.90;;;;;;5079909;28;20052;-83
2022/12/04 04:06:07;;;;;;;0.77;0.77;;;-0.40;99.90;;;;;;5070973;28;20047;-83
2022/12/04 04:08:37;;;;;;;0.80;0.80;;;-0.40;99.90;;;;;;5093952;28;20105;-84
2022/12/04 04:11:18;;;;;;;0.80;0.80;;;0.20;99.90;;;;;;5075076;28;20041;-83
2022/12/04 04:25:26;;;;;;;0.63;0.63;;;-0.50;99.90;;;;;;5074474;28;20044;-85
2022/12/04 04:27:55;;;;;;;0.80;0.80;;;-0.50;99.90;;;;;;5079014;28;20075;-82
2022/12/04 04:30:21;;;;;;;0.77;0.77;;;-0.50;99.90;;;;;;5077659;28;20036;-84
2022/12/04 04:32:59;;;;;;;0.93;0.93;;;-0.50;99.90;;;;;;5059182;28;20040;-82
2022/12/04 04:35:33;;;;;;;0.80;0.80;;;-0.50;99.90;;;;;;5065421;28;20139;-84
2022/12/04 04:38:24;;;;;;;0.80;0.80;;;-0.50;99.90;;;;;;5060802;28;20715;-83
2022/12/04 04:41:15;;;;;;;0.90;0.90;;;-1.20;99.90;;;;;;5080585;28;20047;-82
2022/12/04 04:43:53;;;;;;;1.00;1.00;;;-0.50;99.90;;;;;;5071172;28;20105;-83
2022/12/04 04:46:27;;;;;;;0.80;0.80;;;-0.60;99.90;;;;;;5083287;28;20129;-85
2022/12/04 04:48:58;;;;;;;0.95;0.95;;;-0.60;99.90;;;;;;5082503;28;20040;-84
2022/12/04 04:51:25;;;;;;;0.70;0.70;;;0.60;99.90;;;;;;5086280;28;20052;-84
2022/12/04 04:53:55;;;;;;;3.70;1.60;;;-0.60;99.90;;;;;;5083974;28;20048;-83
2022/12/04 04:56:21;;;;;;;0.82;0.82;;;-0.50;99.90;;;;;;5082027;28;20123;-85
2022/12/04 04:58:47;;;;;;;0.90;0.90;;;-0.50;99.90;;;;;;5064344;28;20155;-82
2022/12/04 05:01:16;;;;;;;0.68;0.68;;;-0.40;99.90;;;;;;5075197;28;20155;-83
2022/12/04 05:03:42;;;;;;;1.05;1.05;;;0.70;99.90;;;;;;5081358;28;20071;-83
2022/12/04 05:06:08;;;;;;;;;;;-0.60;99.90;;;;;;5079242;28;20044;-82
2022/12/04 05:08:34;;;;;;;0.80;0.80;;;-0.60;99.90;;;;;;5070694;28;19943;-82
2022/12/04 05:11:00;;;;;;;;;;;-0.50;99.90;;;;;;5062139;28;20044;-84
2022/12/04 05:13:28;;;;;;;0.70;0.70;;;0.50;99.90;;;;;;5077929;28;19923;-83
2022/12/04 05:16:04;;;;;;;0.70;0.70;;;0.50;99.90;;;;;;5078162;28;20123;-83
2022/12/04 05:18:31;;;;;;;0.90;0.90;;;-0.50;99.90;;;;;;5066943;28;20037;-82
2022/12/04 05:20:56;;;;;;;0.63;0.63;;;-0.50;99.90;;;;;;5078451;28;20036;-83
2022/12/04 05:23:23;;;;;;;0.80;0.80;;;-0.50;99.90;;;;;;5062799;28;20048;-84
2022/12/04 05:26:03;;;;;;;6.45;6.03;;;-0.50;99.90;;;;;;5080666;28;20040;-81
2022/12/04 05:28:28;;;;;;;2.20;2.08;;;-0.40;99.90;;;;;;5086696;28;20522;-83
2022/12/04 05:30:56;;;;;;;;;;;-0.50;99.90;;;;;;5080100;28;20101;-81
2022/12/04 05:33:23;;;;;;;0.75;0.75;;;-0.50;99.90;;;;;;5077652;28;19962;-84
2022/12/04 05:36:04;;;;;;;0.80;0.80;;;-0.50;99.90;;;;;;5060864;28;20531;-83
2022/12/04 05:38:30;;;;;;;1.30;1.20;;;-0.40;99.90;;;;;;5078770;28;20147;-83
2022/12/04 05:41:04;;;;;;;;;;;-0.40;99.90;;;;;;5073979;28;20401;-84
2022/12/04 05:43:30;;;;;;;0.80;0.80;;;-0.40;99.90;;;;;;5074309;28;19978;-83
2022/12/04 05:45:59;;;;;;;;;;;-0.40;99.90;;;;;;5085948;28;20453;-83
2022/12/04 05:48:25;;;;;;;0.80;0.80;;;-0.40;99.90;;;;;;5085183;28;19923;-83
2022/12/04 05:50:56;;;;;;;0.90;0.90;;;0.60;99.90;;;;;;5078342;28;20044;-83
2022/12/04 05:53:22;;;;;;;0.65;0.65;;;-0.20;99.90;;;;;;5081582;28;20130;-84
2022/12/04 05:55:59;;;;;;;0.93;0.93;;;-0.40;99.90;;;;;;5078723;28;20050;-83
2022/12/04 05:58:24;;;;;;;2.35;2.25;;;-0.40;99.90;;;;;;5064953;28;20456;-83
2022/12/04 06:00:54;;;;;;;0.70;0.70;;;-0.30;99.90;;;;;;5078840;28;20037;-82
2022/12/04 06:03:20;;;;;;;1.08;1.05;;;-0.10;99.90;;;;;;5071886;28;20833;-83
2022/12/04 06:05:46;;;;;;;0.80;0.80;;;-0.30;99.90;;;;;;5077428;28;20495;-82
2022/12/04 06:08:12;;;;;;;0.80;0.80;;;-0.30;99.90;;;;;;5084995;28;20123;-83
2022/12/04 06:10:38;;;;;;;;;;;0.00;99.90;;;;;;5085760;28;20111;-81
2022/12/04 06:13:05;;;;;;;0.80;0.80;;;-0.30;99.90;;;;;;5081183;28;19916;-83
2022/12/04 06:15:31;;;;;;;0.80;0.80;;;-0.60;99.90;;;;;;5066125;28;20044;-83
2022/12/04 06:17:58;;;;;;;0.90;0.90;;;-0.30;99.90;;;;;;5075915;28;20044;-82
2022/12/04 06:20:23;;;;;;;0.80;0.80;;;-0.20;99.90;;;;;;5067463;28;20047;-81
2022/12/04 06:22:49;;;;;;;0.80;0.80;;;-0.20;99.90;;;;;;5058741;28;20036;-82
2022/12/04 06:25:15;;;;;;;4.00;3.65;;;-0.10;99.90;;;;;;5075139;28;20503;-82
2022/12/04 06:27:42;;;;;;;2.33;1.75;;;-0.20;99.90;;;;;;5079135;28;20707;-82
2022/12/04 06:30:09;;;;;;;0.80;0.80;;;-0.10;99.90;;;;;;5077886;28;20103;-82
2022/12/04 06:32:35;;;;;;;0.75;0.75;;;-0.20;99.90;;;;;;5072833;28;20052;-82
2022/12/04 06:35:01;;;;;;;1.45;1.35;;;-0.20;99.90;;;;;;5077680;28;20028;-82
2022/12/04 06:37:27;;;;;;;0.88;0.88;;;-0.20;99.90;;;;;;5061855;28;20051;-82
2022/12/04 06:39:53;;;;;;;0.90;0.90;;;-0.20;99.90;;;;;;5058820;28;20052;-81
2022/12/04 06:42:19;;;;;;;0.80;0.80;;;-0.10;99.90;;;;;;5062328;28;20040;-82
2022/12/04 06:44:45;;;;;;;0.80;0.80;;;-0.10;99.90;;;;;;5068336;28;20071;-82
2022/12/04 06:47:16;;;;;;;1.08;1.08;;;-0.10;99.90;;;;;;5081196;28;20059;-80
2022/12/04 06:49:42;;;;;;;0.80;0.80;;;-0.10;99.90;;;;;;5042242;28;20040;-81
2022/12/04 06:52:10;;;;;;;0.70;0.70;;;-0.10;99.90;;;;;;5079686;28;20050;-81
2022/12/04 06:54:37;;;;;;;0.77;0.77;;;-0.10;99.90;;;;;;5061967;28;20540;-81
2022/12/04 06:57:03;;;;;;;1.30;1.02;;;-0.10;99.90;;;;;;5056740;28;20122;-82
2022/12/04 06:59:29;;;;;;;0.75;0.75;;;1.40;99.90;;;;;;5082982;28;20130;-82
2022/12/04 07:01:54;;;;;;;0.70;0.70;;;-0.10;99.90;;;;;;5080380;28;20151;-83
2022/12/04 07:04:20;;;;;;;2.97;2.88;;;-0.10;99.90;;;;;;5042181;28;20037;-84
2022/12/04 07:06:46;;;;;;;0.88;0.88;;;-0.10;99.90;;;;;;5079021;28;20042;-82
2022/12/04 07:09:16;;;;;;;0.60;0.60;;;-0.10;99.90;;;;;;5046929;28;20044;-83
2022/12/04 07:11:43;;;;;;;0.90;0.90;;;-0.10;99.90;;;;;;5066109;28;20481;-84
2022/12/04 07:14:14;;;;;;;0.75;0.75;;;-0.10;99.90;;;;;;5073384;28;21733;-82
2022/12/04 07:16:42;;;;;;;0.70;0.70;;;-0.10;99.90;;;;;;5077790;28;20044;-83
2022/12/04 07:19:10;;;;;;;3.80;2.10;;;-0.10;99.90;;;;;;5084145;28;20036;-82
2022/12/04 07:21:35;;;;;;;1.88;1.77;;;-0.10;99.90;;;;;;5065271;28;20114;-82
2022/12/04 07:24:01;;;;;;;0.80;0.80;;;-0.10;99.90;;;;;;5093362;28;20048;-80
2022/12/04 07:26:28;;;;;;;1.23;1.23;;;-0.10;99.90;;;;;;5053563;28;20102;-81
2022/12/04 07:28:55;;;;;;;0.80;0.80;;;0.00;99.90;;;;;;5078088;28;20029;-82
2022/12/04 07:31:23;;;;;;;0.80;0.80;;;0.00;99.90;;;;;;5078352;28;20044;-83
2022/12/04 07:33:49;;;;;;;0.60;0.60;;;0.20;99.90;;;;;;5075266;28;20397;-82
2022/12/04 07:36:18;;;;;;;0.90;0.90;;;1.30;99.90;;;;;;5071610;28;20079;-81
2022/12/04 07:38:44;;;;;;;0.70;0.70;;;0.00;99.90;;;;;;5057057;28;20113;-82
2022/12/04 07:41:12;;;;;;;0.70;0.70;;;0.00;99.90;;;;;;5054702;28;20044;-82
2022/12/04 07:43:38;;;;;;;0.70;0.70;;;1.00;99.90;;;;;;5077000;28;20087;-82
2022/12/04 07:46:05;;;;;;;;;;;0.90;99.90;;;;;;5057172;28;20111;-82
2022/12/04 07:48:34;;;;;;;0.77;0.77;;;0.00;99.90;;;;;;5074626;28;19920;-83
2022/12/04 07:51:08;;;;;;;0.80;0.80;;;1.10;99.90;;;;;;5044649;28;20044;-84
2022/12/04 07:53:35;;;;;;;0.80;0.80;;;0.00;99.90;;;;;;5074181;28;20042;-81
2022/12/04 07:56:14;;;;;;;1.48;1.38;;;0.10;99.90;;;;;;5076271;28;20193;-82
2022/12/04 07:58:40;;;;;;;0.80;0.80;;;0.10;99.90;;;;;;5074317;28;20043;-82
2022/12/04 08:01:18;;;;;;;0.70;0.70;;;0.10;99.90;;;;;;5050663;28;20493;-81
2022/12/04 08:03:46;;;;;;;2.45;2.17;;;0.10;99.90;;;;;;5052488;28;20032;-81
2022/12/04 08:06:12;;;;;;;0.77;0.77;;;1.20;99.90;;;;;;5073919;28;20047;-82
2022/12/04 08:08:44;;;;;;;0.80;0.80;;;0.10;99.90;;;;;;5060688;28;20166;-83
2022/12/04 08:11:12;;;;;;;0.73;0.73;;;0.20;99.90;;;;;;5066278;28;20036;-84
2022/12/04 08:13:38;;;;;;;0.80;0.80;;;0.70;99.90;;;;;;5080518;28;20036;-81
2022/12/04 08:16:06;;;;;;;0.80;0.80;;;1.40;99.90;;;;;;5086183;28;20043;-83
2022/12/04 08:18:32;;;;;;;0.80;0.80;;;0.20;99.90;;;;;;5062719;28;20129;-83
2022/12/04 08:21:05;;;;;;;0.60;0.60;;;0.20;99.90;;;;;;5071984;28;20040;-81
2022/12/04 08:23:32;;;;;;;0.70;0.70;;;0.20;99.90;;;;;;5085163;28;20155;-84
2022/12/04 08:25:59;;;;;;;0.70;0.70;;;0.30;99.90;;;;;;5072580;28;20529;-82
2022/12/04 08:28:26;;;;;;;0.80;0.80;;;0.50;99.90;;;;;;5075925;28;20490;-83
2022/12/04 08:30:51;;;;;;;0.65;0.65;;;0.30;99.90;;;;;;5050876;28;20080;-83
2022/12/04 08:33:17;;;;;;;2.17;1.60;;;0.30;99.90;;;;;;5077689;28;20119;-82
2022/12/04 08:35:43;;;;;;;0.77;0.77;;;1.00;99.90;;;;;;5051468;28;20062;-80
2022/12/04 08:38:10;;;;;;;0.70;0.70;;;0.30;99.90;;;;;;5079667;28;20444;-82
2022/12/04 08:40:36;;;;;;;0.70;0.70;;;0.40;99.90;;;;;;5074123;28;20102;-83
2022/12/04 08:43:01;;;;;;;0.70;0.70;;;0.40;99.90;;;;;;5064363;28;20048;-81
2022/12/04 08:45:27;;;;;;;0.80;0.80;;;0.40;99.90;;;;;;5058718;28;20045;-82
2022/12/04 08:47:53;;;;;;;0.80;0.80;;;0.40;99.90;;;;;;5086162;28;20067;-83
2022/12/04 08:50:20;;;;;;;0.70;0.70;;;0.50;99.90;;;;;;5076967;28;20132;-84
2022/12/04 08:52:45;;;;;;;0.80;0.80;;;0.70;99.90;;;;;;5081763;28;20041;-83
2022/12/04 08:55:11;;;;;;;0.60;0.60;;;0.50;99.90;;;;;;5076901;28;20044;-84
2022/12/04 08:57:37;;;;;;;0.60;0.60;;;1.20;99.90;;;;;;5069969;28;20047;-82
2022/12/04 09:00:04;;;;;;;0.70;0.70;;;0.50;99.90;;;;;;5074927;28;20089;-84
2022/12/04 09:02:29;;;;;;;0.80;0.80;;;0.60;99.90;;;;;;5069515;28;20067;-82
2022/12/04 09:04:57;;;;;;;0.60;0.60;;;0.70;99.90;;;;;;5072551;28;20032;-84
2022/12/04 09:07:23;;;;;;;0.80;0.80;;;0.60;99.90;;;;;;5089410;28;20504;-84
2022/12/04 09:09:48;;;;;;;0.63;0.63;;;0.60;99.90;;;;;;5067548;28;20056;-84
2022/12/04 09:12:14;;;;;;;0.80;0.80;;;0.70;99.90;;;;;;5067031;28;20542;-83
2022/12/04 09:14:40;;;;;;;0.70;0.70;;;1.60;99.90;;;;;;5067679;28;20044;-83
2022/12/04 09:17:05;;;;;;;0.60;0.60;;;0.90;99.90;;;;;;5064328;28;20575;-83
2022/12/04 09:19:31;;;;;;;0.70;0.70;;;2.10;99.90;;;;;;5066404;28;20042;-84
2022/12/04 09:21:57;;;;;;;0.80;0.80;;;0.90;99.90;;;;;;5062145;28;20143;-83
2022/12/04 09:24:24;;;;;;;0.80;0.80;;;0.80;99.90;;;;;;5097642;28;20033;-84
2022/12/04 09:26:49;;;;;;;0.68;0.68;;;0.80;99.90;;;;;;5049634;28;20039;-83
2022/12/04 09:29:15;;;;;;;0.80;0.80;;;0.90;99.90;;;;;;5063883;28;20500;-84
2022/12/04 09:31:41;;;;;;;0.88;0.88;;;0.90;99.90;;;;;;5054675;28;20041;-84
2022/12/04 09:34:07;;;;;;;0.70;0.70;;;0.90;99.90;;;;;;5072747;28;20042;-83
2022/12/04 09:36:32;;;;;;;1.17;1.13;;;1.00;99.90;;;;;;5081289;28;20688;-83
2022/12/04 09:39:02;;;;;;;0.80;0.80;;;1.00;99.90;;;;;;5084690;28;20051;-84
2022/12/04 09:41:52;;;;;;;0.70;0.70;;;1.10;99.90;;;;;;5072866;28;20044;-83
2022/12/04 09:44:26;;;;;;;0.60;0.60;;;1.20;99.90;;;;;;5072399;28;20046;-84
2022/12/04 09:47:08;;;;;;;0.63;0.63;;;1.30;99.90;;;;;;5080389;28;20481;-82
2022/12/04 09:49:59;;;;;;;0.80;0.80;;;1.40;99.90;;;;;;5087229;28;20509;-83
2022/12/04 09:52:56;;;;;;;1.48;1.42;;;1.50;99.90;;;;;;5079948;28;20105;-83
2022/12/04 09:56:25;;;;;;;0.70;0.70;;;1.50;99.90;;;;;;5061644;28;20040;-83
2022/12/04 09:59:02;;;;;;;0.70;0.70;;;1.60;99.90;;;;;;5026208;28;20041;-84
2022/12/04 10:01:37;;;;;;;0.60;0.60;;;1.70;99.90;;;;;;5035318;28;20045;-83
2022/12/04 10:04:03;;;;;;;0.93;0.93;;;1.80;99.90;;;;;;5053448;28;20068;-83
2022/12/04 10:06:47;;;;;;;0.60;0.60;;;1.80;99.90;;;;;;5071077;28;20063;-84
2022/12/04 10:09:39;;;;;;;0.73;0.73;;;1.80;99.90;;;;;;5084221;28;20091;-84
2022/12/04 10:12:22;;;;;;;0.70;0.70;;;1.80;99.90;;;;;;5092209;28;20038;-83
2022/12/04 10:14:54;;;;;;;1.75;1.58;;;1.90;99.90;;;;;;5086792;28;20163;-84
2022/12/04 10:17:39;;;;;;;0.95;0.95;;;1.90;99.90;;;;;;5070281;28;20060;-84
2022/12/04 10:20:10;;;;;;;1.08;1.08;;;1.90;99.90;;;;;;5087077;28;20507;-85
2022/12/04 10:23:07;;;;;;;0.60;0.60;;;1.90;99.90;;;;;;5081065;28;20048;-84
2022/12/04 10:25:37;;;;;;;0.50;0.50;;;2.00;99.90;;;;;;5079211;28;20090;-82
2022/12/04 10:28:15;;;;;;;0.93;0.93;;;2.00;99.90;;;;;;5086714;28;20048;-82
2022/12/04 10:30:42;;;;;;;1.83;1.73;;;2.00;99.90;;;;;;5083686;28;20045;-84
2022/12/04 10:33:38;;;;;;;0.70;0.70;;;2.10;99.90;;;;;;5056871;28;20044;-84
2022/12/04 10:36:04;;;;;;;0.50;0.50;;;2.10;99.90;;;;;;5086259;28;20063;-83
2022/12/04 10:38:52;;;;;;;0.70;0.70;;;2.10;99.90;;;;;;5091331;28;20093;-83
2022/12/04 10:41:45;;;;;;;0.80;0.80;;;2.20;99.90;;;;;;5084448;28;20049;-84
2022/12/04 10:44:17;;;;;;;0.70;0.70;;;2.10;99.90;;;;;;5091527;28;20065;-82
2022/12/04 10:46:43;;;;;;;0.70;0.70;;;2.20;99.90;;;;;;5083486;28;20433;-83
2022/12/04 10:49:26;;;;;;;0.68;0.68;;;2.20;99.90;;;;;;5075433;28;20178;-84
2022/12/04 10:51:52;;;;;;;0.60;0.60;;;2.20;99.90;;;;;;5084735;28;20049;-84
2022/12/04 10:54:30;;;;;;;0.70;0.70;;;2.30;99.90;;;;;;5081294;28;20367;-83
2022/12/04 10:57:06;;;;;;;0.77;0.77;;;2.30;99.90;;;;;;5083166;28;20040;-84
2022/12/04 10:59:33;;;;;;;0.70;0.70;;;2.30;99.90;;;;;;5079579;28;20393;-83
2022/12/04 11:02:00;;;;;;;1.08;1.08;;;2.30;99.90;;;;;;5080519;28;20045;-83
2022/12/04 11:04:28;;;;;;;0.60;0.60;;;2.40;99.90;;;;;;5083197;28;20142;-84
2022/12/04 11:07:03;;;;;;;0.63;0.63;;;2.60;99.90;;;;;;5077713;28;20067;-83
2022/12/04 11:09:30;;;;;;;0.75;0.75;;;2.90;99.90;;;;;;5074452;28;20040;-84
2022/12/04 11:12:06;;;;;;;0.55;0.55;;;2.40;99.90;;;;;;5083704;28;20052;-83
2022/12/04 11:14:32;;;;;;;0.80;0.80;;;2.40;99.90;;;;;;5081353;28;20053;-84
2022/12/04 11:17:04;;;;;;;0.80;0.80;;;2.40;99.90;;;;;;5066594;28;20044;-83
2022/12/04 11:19:35;;;;;;;0.70;0.70;;;2.40;99.90;;;;;;5080087;28;20033;-82
2022/12/04 11:22:16;;;;;;;0.60;0.60;;;2.40;99.90;;;;;;5081620;28;20335;-81
2022/12/04 11:24:48;;;;;;;0.93;0.93;;;2.40;99.90;;;;;;5086990;28;20055;-83
2022/12/04 11:27:23;;;;;;;0.85;0.85;;;2.50;99.90;;;;;;5061006;28;20040;-83
2022/12/04 11:29:50;;;;;;;0.70;0.70;;;2.40;99.90;;;;;;5068054;28;20032;-83
2022/12/04 11:32:26;;;;;;;0.63;0.63;;;2.40;99.90;;;;;;5064592;28;20091;-85
2022/12/04 11:34:56;;;;;;;0.70;0.70;;;3.10;99.90;;;;;;5080419;28;20045;-83
2022/12/04 11:37:26;;;;;;;0.70;0.70;;;2.40;99.90;;;;;;5080383;28;20072;-83
2022/12/04 11:39:53;;;;;;;0.60;0.60;;;2.40;99.90;;;;;;5081878;28;20050;-83
2022/12/04 11:42:26;;;;;;;0.80;0.80;;;3.00;99.90;;;;;;5077110;28;20199;-83
2022/12/04 11:44:57;;;;;;;0.68;0.68;;;3.80;99.90;;;;;;5078809;28;20042;-83
2022/12/04 11:47:29;;;;;;;0.60;0.60;;;2.50;99.90;;;;;;5082417;28;20489;-81
2022/12/04 11:50:28;;;;;;;0.60;0.60;;;2.40;99.90;;;;;;5074924;28;20127;-83
2022/12/04 11:53:12;;;;;;;0.85;0.85;;;2.30;99.90;;;;;;5067329;28;20116;-83
2022/12/04 11:55:58;;;;;;;0.70;0.70;;;2.30;99.90;;;;;;5090517;28;20093;-85
2022/12/04 11:58:54;;;;;;;0.60;0.60;;;2.20;99.90;;;;;;5045733;28;20427;-82
2022/12/04 12:01:50;;;;;;;0.70;0.70;;;3.00;99.90;;;;;;5079057;28;20048;-83
2022/12/04 12:04:39;;;;;;;0.60;0.60;;;2.20;99.90;;;;;;5058539;28;20050;-82
2022/12/04 12:07:33;;;;;;;0.70;0.70;;;2.30;99.90;;;;;;5093662;28;20044;-83
2022/12/04 12:10:10;;;;;;;0.93;0.93;;;2.30;99.90;;;;;;5077395;28;20087;-85
2022/12/04 12:13:01;;;;;;;0.60;0.60;;;2.30;99.90;;;;;;5077932;28;20050;-83
2022/12/04 12:15:59;;;;;;;0.60;0.60;;;2.40;99.90;;;;;;5069253;28;20041;-83
2022/12/04 12:18:39;;;;;;;0.75;0.75;;;2.30;99.90;;;;;;5082793;28;20474;-84
2022/12/04 12:21:22;;;;;;;0.80;0.80;;;2.30;99.90;;;;;;5081072;28;20032;-83
2022/12/04 12:24:03;;;;;;;0.63;0.63;;;2.30;99.90;;;;;;5075459;28;20044;-83
2022/12/04 12:26:59;;;;;;;0.70;0.70;;;2.30;99.90;;;;;;5075840;28;20101;-84
2022/12/04 12:29:37;;;;;;;0.70;0.70;;;2.30;99.90;;;;;;5061395;28;20427;-84
2022/12/04 12:32:21;;;;;;;0.63;0.63;;;2.30;99.90;;;;;;5077119;28;20397;-83
2022/12/04 12:34:48;;;;;;;0.70;0.70;;;2.30;99.90;;;;;;5081002;28;20051;-83
2022/12/04 12:38:01;;;;;;;0.68;0.68;;;2.30;99.90;;;;;;5077541;28;20476;-83
2022/12/04 12:40:39;;;;;;;0.55;0.55;;;1.60;99.90;;;;;;5034107;28;20052;-83
2022/12/04 12:43:31;;;;;;;1.15;1.15;;;2.30;99.90;;;;;;5050984;28;20044;-83
2022/12/04 12:46:03;;;;;;;0.70;0.70;;;2.30;99.90;;;;;;5068772;28;20036;-84
2022/12/04 12:49:10;;;;;;;1.55;1.45;;;2.30;99.90;;;;;;5067209;28;20060;-83
2022/12/04 12:51:51;;;;;;;0.70;0.70;;;2.30;99.90;;;;;;5056360;28;20087;-83
2022/12/04 12:55:03;;;;;;;0.70;0.70;;;2.30;99.90;;;;;;5046649;28;20044;-85
2022/12/04 12:57:35;;;;;;;0.60;0.60;;;2.30;99.90;;;;;;5024927;28;20059;-83
2022/12/04 13:00:20;;;;;;;0.77;0.77;;;2.40;99.90;;;;;;5057733;28;20109;-83
2022/12/04 13:02:58;;;;;;;0.60;0.60;;;2.30;99.90;;;;;;5052606;28;20048;-82
2022/12/04 13:05:38;;;;;;;0.70;0.70;;;2.40;99.90;;;;;;5055722;28;20044;-85
2022/12/04 13:08:29;;;;;;;0.60;0.60;;;2.30;99.90;;;;;;5041691;28;20043;-84
2022/12/04 13:11:04;;;;;;;0.70;0.70;;;2.30;99.90;;;;;;5057656;28;20494;-83
2022/12/04 13:13:34;;;;;;;0.80;0.80;;;2.30;99.90;;;;;;5045116;28;20123;-82
2022/12/04 13:16:11;;;;;;;3.25;1.05;;;2.40;99.90;;;;;;5046380;28;20041;-83
2022/12/04 13:18:47;;;;;;;0.68;0.68;;;2.40;99.90;;;;;;5061970;28;20047;-82
2022/12/04 13:21:39;;;;;;;0.80;0.80;;;2.40;99.90;;;;;;5069225;28;20064;-84
2022/12/04 13:24:26;;;;;;;0.70;0.70;;;2.40;99.90;;;;;;5046042;28;20040;-83
2022/12/04 13:27:14;;;;;;;1.80;1.20;;;2.40;99.90;;;;;;5060495;28;20530;-83
2022/12/04 13:29:39;;;;;;;;;;;3.20;99.90;;;;;;5056409;28;20049;-84
2022/12/04 13:32:36;;;;;;;0.63;0.63;;;2.40;99.90;;;;;;5070275;28;19923;-82
2022/12/04 13:35:31;;;;;;;1.13;1.13;;;2.40;99.90;;;;;;5041404;28;20048;-81
2022/12/04 13:38:12;;;;;;;1.48;1.05;;;2.40;99.90;;;;;;5067993;28;20057;-82